Time;durP1;ratioP1;P1;durP2;ratioP2;P2;SDS_P1;SDS_P2;PMS_P1;PMS_P2;Temp;Humidity;BMP_temperature;BMP_pressure;BME280_temperature;BME280_humidity;BME280_pressure;Samples;Min_cycle;Max_cycle;Signal;HPM_P1;HPM_P2
2022/08/02 00:00:56;;;;;;;11.20;8.60;;;;;;;22.30;61.57;98940.61;238603;1191;139558;-58
2022/08/02 00:05:59;;;;;;;10.50;7.80;;;;;;;22.26;61.58;98939.41;238449;1192;139204;-58
2022/08/02 00:11:03;;;;;;;10.40;8.20;;;;;;;22.22;61.74;98946.54;238457;1192;140576;-58
2022/08/02 00:16:13;;;;;;;9.90;8.40;;;;;;;22.18;61.85;98946.58;238631;1191;139309;-58
2022/08/02 00:21:18;;;;;;;10.50;9.20;;;;;;;22.13;61.95;98945.88;238475;1191;138833;-57
2022/08/02 00:26:21;;;;;;;12.20;9.20;;;;;;;22.07;62.04;98946.90;238320;1192;139002;-57
2022/08/02 00:31:24;;;;;;;13.70;9.20;;;;;;;22.03;62.15;98952.59;238555;1190;139322;-57
2022/08/02 00:36:28;;;;;;;10.90;8.50;;;;;;;21.97;62.22;98957.77;238835;1190;139821;-56
2022/08/02 00:41:31;;;;;;;13.00;8.50;;;;;;;21.93;62.33;98956.55;238575;1190;139595;-57
2022/08/02 00:46:33;;;;;;;12.50;9.10;;;;;;;21.94;62.52;98968.55;238354;1192;140130;-57
2022/08/02 00:51:37;;;;;;;11.30;9.10;;;;;;;21.93;62.56;98974.17;238689;1190;138979;-59
2022/08/02 00:56:41;;;;;;;10.80;8.20;;;;;;;21.86;62.70;98973.23;238673;1190;139580;-59
2022/08/02 01:01:54;;;;;;;14.00;8.80;;;;;;;21.81;62.74;98973.08;238519;1191;140301;-59
2022/08/02 01:07:02;;;;;;;11.90;8.30;;;;;;;21.77;62.94;98976.84;238474;1191;138886;-59
2022/08/02 01:12:15;;;;;;;11.30;8.40;;;;;;;21.75;62.99;98981.26;238636;1190;139635;-58
2022/08/02 01:17:33;;;;;;;13.00;8.30;;;;;;;21.77;63.23;98990.58;238808;1190;139448;-58
2022/08/02 01:22:54;;;;;;;14.30;8.70;;;;;;;21.76;63.33;98993.57;238646;1190;139040;-54
2022/08/02 01:28:24;;;;;;;11.90;8.70;;;;;;;21.70;63.34;98997.02;238484;1192;139286;-59
2022/08/02 01:33:41;;;;;;;9.30;7.40;;;;;;;21.68;63.49;98997.83;238704;1191;139416;-58
2022/08/02 01:38:52;;;;;;;11.10;7.60;;;;;;;21.70;63.75;98997.29;238880;1191;139632;-57
2022/08/02 01:43:58;;;;;;;12.20;8.60;;;;;;;21.70;63.55;99003.33;238468;1192;139227;-58
2022/08/02 01:49:04;;;;;;;11.80;8.70;;;;;;;21.70;63.74;98999.02;238310;1192;139303;-58
2022/08/02 01:54:16;;;;;;;9.80;8.50;;;;;;;21.69;63.73;99005.85;238663;1190;138993;-60
2022/08/02 01:59:21;;;;;;;12.70;9.00;;;;;;;21.64;63.76;99007.51;238768;1190;139511;-60
2022/08/02 02:04:27;;;;;;;12.40;8.40;;;;;;;21.60;63.82;99007.71;238370;1190;139242;-59
2022/08/02 02:09:36;;;;;;;10.30;8.00;;;;;;;21.63;64.08;99005.48;238206;1191;141196;-58
2022/08/02 02:14:54;;;;;;;10.60;8.30;;;;;;;21.67;64.19;99008.93;238570;1190;139717;-58
2022/08/02 02:20:00;;;;;;;13.70;9.50;;;;;;;21.68;64.21;99005.08;238877;1190;138781;-55
2022/08/02 02:25:03;;;;;;;15.20;9.30;;;;;;;21.65;64.30;99002.86;238417;1191;140081;-59
2022/08/02 02:30:08;;;;;;;11.30;8.70;;;;;;;21.62;64.33;99005.55;238314;1191;140129;-55
2022/08/02 02:35:15;;;;;;;9.50;8.50;;;;;;;21.63;64.32;99009.94;238690;1190;139726;-56
2022/08/02 02:40:19;;;;;;;13.70;9.10;;;;;;;21.63;64.39;99008.72;238765;1190;140496;-56
2022/08/02 02:45:22;;;;;;;11.30;9.00;;;;;;;21.61;64.53;99012.55;238488;1190;139354;-57
2022/08/02 02:50:27;;;;;;;15.40;9.80;;;;;;;21.62;64.56;99011.70;238408;1191;138816;-57
2022/08/02 02:55:30;;;;;;;16.30;10.40;;;;;;;21.58;64.52;99016.27;238772;1190;139282;-57
2022/08/02 03:05:55;;;;;;;15.60;11.10;;;;;;;21.49;64.63;99019.90;238486;1190;139239;-55
2022/08/02 03:10:58;;;;;;;76.70;63.30;;;;;;;21.47;64.77;99019.38;238447;1191;140202;-57
2022/08/02 03:16:02;;;;;;;18.80;12.90;;;;;;;21.53;65.04;99023.36;238137;1190;139539;-57
2022/08/02 03:21:07;;;;;;;126.70;93.40;;;;;;;21.52;64.98;99021.45;238663;1191;139572;-58
2022/08/02 03:26:11;;;;;;;17.80;13.10;;;;;;;21.55;65.02;99025.13;238136;1190;140295;-59
2022/08/02 03:31:14;;;;;;;18.70;13.10;;;;;;;21.57;65.12;99023.27;238366;1191;140464;-59
2022/08/02 03:36:20;;;;;;;189.40;152.80;;;;;;;21.61;65.20;99024.45;238545;1190;139409;-59
2022/08/02 03:41:24;;;;;;;22.90;17.00;;;;;;;21.53;65.10;99028.36;238631;1191;139569;-59
2022/08/02 03:46:27;;;;;;;22.00;14.80;;;;;;;21.53;65.33;99031.11;238411;1191;139043;-57
2022/08/02 03:51:30;;;;;;;19.70;15.40;;;;;;;21.56;65.37;99035.42;238404;1191;139951;-58
2022/08/02 03:56:33;;;;;;;23.40;16.50;;;;;;;21.64;65.47;99038.88;238534;1191;139888;-57
2022/08/02 04:01:37;;;;;;;346.20;303.70;;;;;;;21.69;65.46;99042.18;238508;1190;139792;-58
2022/08/02 04:06:40;;;;;;;32.70;19.70;;;;;;;21.75;65.41;99051.45;238520;1190;140071;-59
2022/08/02 04:11:43;;;;;;;26.70;17.00;;;;;;;21.73;65.14;99055.98;238139;1191;141234;-58
2022/08/02 04:16:52;;;;;;;25.80;17.50;;;;;;;21.71;65.17;99065.02;238520;1192;139989;-57
2022/08/02 04:21:58;;;;;;;27.50;17.70;;;;;;;21.74;65.33;99071.21;238742;1190;140458;-57
2022/08/02 04:27:02;;;;;;;26.00;17.80;;;;;;;21.77;65.37;99068.61;238554;1191;139565;-56
2022/08/02 04:32:26;;;;;;;27.50;18.90;;;;;;;21.71;65.19;99071.32;238269;1191;140024;-58
2022/08/02 04:37:29;;;;;;;29.60;17.60;;;;;;;21.67;65.23;99071.13;238623;1191;139754;-59
2022/08/02 04:42:32;;;;;;;27.90;18.70;;;;;;;21.66;65.23;99078.57;238790;1190;140887;-60
2022/08/02 04:47:35;;;;;;;30.30;20.90;;;;;;;21.66;65.48;99076.41;238632;1190;139461;-60
2022/08/02 04:52:58;;;;;;;35.90;22.40;;;;;;;21.72;65.45;99079.34;238165;1191;140054;-61
2022/08/02 04:58:02;;;;;;;36.20;23.60;;;;;;;21.68;65.46;99082.34;238402;1190;139249;-60
2022/08/02 05:03:11;;;;;;;37.40;22.80;;;;;;;21.64;65.50;99083.31;238603;1190;139886;-63
2022/08/02 05:08:14;;;;;;;31.20;20.80;;;;;;;21.63;65.51;99087.78;238321;1191;140066;-61
2022/08/02 05:13:17;;;;;;;33.80;22.20;;;;;;;21.63;65.56;99095.19;238531;1191;140560;-60
2022/08/02 05:18:20;;;;;;;35.30;22.40;;;;;;;21.65;65.67;99101.66;238429;1190;139909;-61
2022/08/02 05:23:23;;;;;;;36.80;23.00;;;;;;;21.65;65.74;99105.23;238719;1190;139336;-60
2022/08/02 05:28:26;;;;;;;32.30;21.80;;;;;;;21.65;65.72;99105.80;238553;1191;140825;-60
2022/08/02 05:33:29;;;;;;;32.90;20.90;;;;;;;21.67;65.70;99111.52;238327;1191;139936;-59
2022/08/02 05:38:32;;;;;;;32.10;22.60;;;;;;;21.67;65.61;99113.89;238688;1191;139762;-57
2022/08/02 05:43:39;;;;;;;35.50;23.10;;;;;;;21.67;65.67;99115.84;238881;1192;140153;-57
2022/08/02 05:48:43;;;;;;;35.50;22.60;;;;;;;21.68;65.62;99126.05;238302;1192;141028;-56
2022/08/02 05:53:55;;;;;;;30.90;21.60;;;;;;;21.66;65.66;99129.12;238257;1191;142683;-56
2022/08/02 05:59:12;;;;;;;29.30;21.10;;;;;;;21.69;65.73;99131.35;238605;1190;140631;-54
2022/08/02 06:04:25;;;;;;;31.90;22.30;;;;;;;21.78;65.65;99134.21;238780;1190;139779;-59
2022/08/02 06:09:28;;;;;;;26.60;20.70;;;;;;;21.88;65.78;99133.09;238705;1190;139905;-60
2022/08/02 06:14:32;;;;;;;33.00;22.20;;;;;;;21.97;65.62;99129.99;238244;1191;142683;-59
2022/08/02 06:19:37;;;;;;;30.90;20.00;;;;;;;21.99;65.38;99132.85;238665;1190;140995;-60
2022/08/02 06:24:57;;;;;;;27.90;18.80;;;;;;;22.01;65.35;99139.36;238669;1191;140070;-62
2022/08/02 06:30:02;;;;;;;30.90;19.60;;;;;;;22.05;65.32;99145.04;238464;1191;225199;-61
2022/08/02 06:35:07;;;;;;;23.50;19.50;;;;;;;22.14;65.36;99148.95;238186;1191;139478;-60
2022/08/02 06:40:34;;;;;;;30.30;20.50;;;;;;;22.23;65.27;99148.93;238660;1191;139361;-58
2022/08/02 06:45:38;;;;;;;27.40;19.60;;;;;;;22.31;65.16;99156.67;238729;1190;139448;-59
2022/08/02 06:50:43;;;;;;;24.80;17.60;;;;;;;22.33;65.00;99163.31;238145;1192;139459;-61
2022/08/02 06:55:46;;;;;;;21.00;18.50;;;;;;;22.33;64.75;99170.35;238236;1191;139866;-58
2022/08/02 07:00:49;;;;;;;20.90;18.60;;;;;;;22.29;64.59;99173.92;238627;1190;142467;-59
2022/08/02 07:05:52;;;;;;;22.70;19.90;;;;;;;22.32;64.69;99172.16;238744;1190;139140;-59
2022/08/02 07:10:57;;;;;;;56.40;43.40;;;;;;;22.39;64.78;99169.66;238144;1191;139754;-59
2022/08/02 07:16:01;;;;;;;21.50;18.40;;;;;;;22.40;64.60;99165.26;238058;1191;139832;-59
2022/08/02 07:21:05;;;;;;;20.40;16.20;;;;;;;22.43;64.64;99165.80;238214;1187;141735;-58
2022/08/02 07:26:11;;;;;;;20.20;15.50;;;;;;;22.56;64.72;99161.70;237714;1192;140382;-59
2022/08/02 07:31:14;;;;;;;20.00;15.80;;;;;;;22.62;64.36;99166.89;238423;1192;140157;-59
2022/08/02 07:36:17;;;;;;;19.60;16.10;;;;;;;22.59;64.23;99170.66;238365;1192;139397;-59
2022/08/02 07:41:24;;;;;;;57.00;44.40;;;;;;;22.59;64.19;99173.10;238192;1192;139250;-59
2022/08/02 07:46:27;;;;;;;19.10;14.50;;;;;;;22.62;64.09;99177.36;238037;1193;139179;-59
2022/08/02 07:51:32;;;;;;;17.70;14.00;;;;;;;22.60;64.06;99174.30;238154;1192;139913;-59
2022/08/02 07:56:36;;;;;;;17.60;14.70;;;;;;;22.73;64.33;99180.77;238241;1191;140450;-58
2022/08/02 08:01:40;;;;;;;17.90;15.30;;;;;;;22.85;64.24;99183.80;238531;1192;139503;-59
2022/08/02 08:06:50;;;;;;;20.30;16.00;;;;;;;22.94;63.87;99179.20;238368;1192;139178;-59
2022/08/02 08:11:53;;;;;;;21.10;15.30;;;;;;;23.03;63.77;99178.11;238320;1192;139273;-58
2022/08/02 08:16:56;;;;;;;19.40;16.20;;;;;;;23.09;63.55;99174.66;238190;1192;140999;-59
2022/08/02 08:21:59;;;;;;;22.00;17.30;;;;;;;23.17;63.55;99175.73;237973;1192;140207;-58
2022/08/02 08:27:04;;;;;;;21.50;16.30;;;;;;;23.26;63.38;99176.61;238298;1192;139645;-58
2022/08/02 08:32:09;;;;;;;21.10;16.20;;;;;;;23.33;63.20;99177.37;238186;1192;139719;-59
2022/08/02 08:37:18;;;;;;;21.10;13.80;;;;;;;23.42;63.13;99178.61;238037;1193;139134;-58
2022/08/02 08:42:21;;;;;;;17.40;13.30;;;;;;;23.57;63.08;99175.95;238151;1192;141523;-58
2022/08/02 08:47:38;;;;;;;16.60;12.80;;;;;;;23.67;62.62;99176.61;238147;1192;139730;-58
2022/08/02 08:52:52;;;;;;;14.90;12.00;;;;;;;23.73;62.23;99179.01;238358;1193;139649;-58
2022/08/02 08:57:57;;;;;;;30.40;21.90;;;;;;;23.79;62.09;99178.19;238436;1192;139037;-57
2022/08/02 09:03:04;;;;;;;16.30;14.50;;;;;;;23.76;61.91;99176.07;238290;1192;139333;-59
2022/08/02 09:08:08;;;;;;;17.10;13.00;;;;;;;23.82;61.94;99180.66;238381;1192;138727;-57
2022/08/02 09:13:23;;;;;;;13.30;11.80;;;;;;;23.88;61.81;99183.49;238263;1192;139695;-57
2022/08/02 09:18:47;;;;;;;16.00;12.10;;;;;;;23.94;61.56;99178.47;238490;1192;139415;-58
2022/08/02 09:23:51;;;;;;;14.20;11.40;;;;;;;24.09;61.72;99183.15;238472;1192;139563;-58
2022/08/02 09:29:01;;;;;;;13.40;11.20;;;;;;;24.23;61.49;99186.30;238456;1193;139411;-58
2022/08/02 09:34:04;;;;;;;13.60;10.90;;;;;;;24.28;61.03;99182.20;238045;1193;139720;-58
2022/08/02 09:39:13;;;;;;;11.20;9.80;;;;;;;24.35;61.01;99184.83;237975;1193;139653;-58
2022/08/02 09:44:16;;;;;;;12.10;9.60;;;;;;;24.42;60.71;99183.55;238359;1192;139345;-59
2022/08/02 09:49:19;;;;;;;11.80;8.60;;;;;;;24.48;60.53;99180.96;238566;1192;139213;-59
2022/08/02 09:54:28;;;;;;;11.80;9.30;;;;;;;24.62;60.40;99176.61;238494;1192;139461;-60
2022/08/02 09:59:31;;;;;;;14.20;8.60;;;;;;;24.73;60.07;99179.45;238519;1192;139212;-58
2022/08/02 10:04:34;;;;;;;9.70;8.40;;;;;;;24.73;59.81;99177.30;238051;1193;138941;-58
2022/08/02 10:09:56;;;;;;;10.90;8.80;;;;;;;24.62;59.44;99175.42;238068;1193;139006;-59
2022/08/02 10:14:59;;;;;;;13.60;8.80;;;;;;;24.62;59.41;99174.13;238432;1192;139069;-59
2022/08/02 10:20:02;;;;;;;11.90;9.20;;;;;;;24.84;59.47;99165.71;238009;1192;139189;-61
2022/08/02 10:25:07;;;;;;;21.10;16.00;;;;;;;25.15;59.50;99163.02;238263;1192;139314;-57
2022/08/02 10:30:11;;;;;;;16.00;10.40;;;;;;;25.51;59.25;99160.12;237731;1193;139119;-58
2022/08/02 10:35:17;;;;;;;12.90;10.20;;;;;;;25.77;58.40;99156.02;238210;1192;139037;-60
2022/08/02 10:41:01;;;;;;;13.60;10.00;;;;;;;25.74;57.51;99156.23;238366;1192;139865;-61
2022/08/02 10:46:28;;;;;;;13.00;10.30;;;;;;;25.53;56.92;99158.43;237908;1193;139977;-61
2022/08/02 10:52:12;;;;;;;11.80;10.40;;;;;;;25.41;56.98;99160.78;238276;1192;139209;-60
2022/08/02 10:57:24;;;;;;;10.80;9.30;;;;;;;25.43;56.85;99162.73;237241;1195;140625;-60
2022/08/02 11:02:42;;;;;;;13.90;9.90;;;;;;;25.62;56.76;99156.34;238001;1192;139601;-62
2022/08/02 11:07:48;;;;;;;14.20;11.80;;;;;;;25.72;56.82;99152.57;238454;1192;139173;-60
2022/08/02 11:13:03;;;;;;;15.40;10.10;;;;;;;25.70;56.30;99155.77;238184;1192;139441;-61
2022/08/02 11:18:06;;;;;;;13.30;9.60;;;;;;;25.60;56.11;99163.56;238200;1192;140182;-61
2022/08/02 11:23:38;;;;;;;10.70;9.00;;;;;;;25.86;56.28;99152.55;238360;1192;139599;-61
2022/08/02 11:28:48;;;;;;;10.10;8.00;;;;;;;26.16;55.98;99148.09;238299;1192;138987;-61
2022/08/02 11:33:51;;;;;;;11.80;8.10;;;;;;;26.22;55.53;99144.89;238141;1192;139113;-60
2022/08/02 11:39:11;;;;;;;11.00;9.60;;;;;;;26.52;55.62;99152.57;237977;1192;139047;-62
2022/08/02 11:44:18;;;;;;;10.10;9.20;;;;;;;26.60;55.12;99153.77;238270;1192;140344;-60
2022/08/02 11:49:25;;;;;;;12.20;10.70;;;;;;;26.44;54.39;99154.79;238422;1192;139572;-61
2022/08/02 11:54:31;;;;;;;13.50;12.00;;;;;;;26.36;54.60;99154.40;238011;1192;139475;-62
2022/08/02 11:59:39;;;;;;;17.80;11.60;;;;;;;26.63;54.53;99154.98;238338;1192;139252;-61
2022/08/02 12:04:41;;;;;;;12.80;11.50;;;;;;;26.98;54.25;99147.71;238229;1192;139761;-60
2022/08/02 12:09:45;;;;;;;13.40;11.70;;;;;;;27.22;53.63;99150.45;238395;1192;138876;-62
2022/08/02 12:14:48;;;;;;;14.40;12.70;;;;;;;27.55;53.65;99154.10;238338;1192;139374;-62
2022/08/02 12:19:53;;;;;;;13.60;12.30;;;;;;;27.93;53.24;99154.88;238465;1192;139756;-62
2022/08/02 12:24:57;;;;;;;12.30;11.00;;;;;;;27.91;52.36;99155.02;238531;1192;139042;-62
2022/08/02 12:30:05;;;;;;;12.10;10.10;;;;;;;27.59;51.75;99154.98;237900;1193;139757;-62
2022/08/02 12:35:16;;;;;;;8.60;7.70;;;;;;;27.79;52.35;99150.83;238122;1192;140008;-63
2022/08/02 12:40:31;;;;;;;9.70;6.80;;;;;;;27.90;51.52;99149.50;237778;1192;139807;-60
2022/08/02 12:45:54;;;;;;;7.00;5.70;;;;;;;28.21;51.78;99148.81;238301;1192;140001;-60
2022/08/02 12:50:57;;;;;;;6.70;5.80;;;;;;;28.55;51.28;99149.96;238218;1192;139213;-60
2022/08/02 12:56:01;;;;;;;6.00;5.40;;;;;;;28.90;51.04;99149.36;238397;1192;141672;-59
2022/08/02 13:01:05;;;;;;;;;;;;;;;29.14;50.64;99153.56;238525;1192;139526;-60
2022/08/02 13:06:09;;;;;;;7.10;6.10;;;;;;;29.14;50.00;99152.25;238402;1192;125545;-61
2022/08/02 13:11:31;;;;;;;11.20;6.60;;;;;;;29.16;49.61;99152.37;238300;1192;138835;-60
2022/08/02 13:16:34;;;;;;;7.90;6.00;;;;;;;29.12;49.24;99154.48;238547;1192;141564;-61
2022/08/02 13:21:37;;;;;;;8.40;6.30;;;;;;;29.18;49.24;99144.15;238247;1192;139461;-63
2022/08/02 13:27:00;;;;;;;7.20;6.50;;;;;;;28.97;48.74;99145.92;238218;1192;138969;-61
2022/08/02 13:32:10;;;;;;;6.90;6.30;;;;;;;28.65;48.68;99146.91;238140;1192;139962;-62
2022/08/02 13:37:14;;;;;;;6.60;5.80;;;;;;;28.40;48.88;99145.94;238493;1192;138928;-61
2022/08/02 13:42:17;;;;;;;5.40;4.90;;;;;;;28.15;48.87;99145.26;238113;1192;138926;-60
2022/08/02 13:47:20;;;;;;;5.30;4.70;;;;;;;27.91;48.71;99146.27;238202;1192;138798;-62
2022/08/02 13:52:38;;;;;;;5.10;3.90;;;;;;;27.77;49.02;99145.52;238401;1192;139251;-61
2022/08/02 13:57:41;;;;;;;4.20;3.60;;;;;;;28.10;49.22;99140.73;238114;1192;138607;-60
2022/08/02 14:02:44;;;;;;;3.50;3.00;;;;;;;28.52;49.00;99136.94;238203;1192;139161;-60
2022/08/02 14:07:47;;;;;;;3.30;3.00;;;;;;;28.93;48.84;99135.23;238386;1192;139386;-61
2022/08/02 14:12:50;;;;;;;3.70;2.60;;;;;;;29.25;48.29;99134.44;238247;1192;139026;-61
2022/08/02 14:17:58;;;;;;;3.20;2.80;;;;;;;29.50;47.44;99131.85;237484;1192;142115;-62
2022/08/02 14:23:01;;;;;;;5.10;2.90;;;;;;;29.65;47.07;99125.32;237971;1192;139086;-60
2022/08/02 14:28:04;;;;;;;6.70;2.90;;;;;;;29.68;46.58;99119.70;238107;1193;139527;-61
2022/08/02 14:33:08;;;;;;;4.10;3.30;;;;;;;29.41;46.06;99126.34;238127;1192;138962;-60
2022/08/02 14:38:11;;;;;;;3.50;3.20;;;;;;;29.28;45.99;99126.34;238089;1192;138890;-61
2022/08/02 14:48:35;;;;;;;6.00;3.80;;;;;;;28.98;45.98;99125.38;238183;1192;139194;-61
2022/08/02 14:53:39;;;;;;;4.60;3.50;;;;;;;28.69;45.96;99126.47;238200;1192;139300;-60
2022/08/02 14:59:03;;;;;;;5.90;3.80;;;;;;;28.47;46.31;99124.02;238178;1192;138948;-60
2022/08/02 15:04:06;;;;;;;5.60;3.50;;;;;;;28.35;46.39;99125.60;238041;1192;141151;-61
2022/08/02 15:09:09;;;;;;;4.10;3.70;;;;;;;28.21;46.39;99120.89;238235;1192;139609;-61
2022/08/02 15:14:12;;;;;;;4.50;3.70;;;;;;;28.10;46.53;99117.16;238304;1192;139858;-60
2022/08/02 15:19:15;;;;;;;8.90;4.30;;;;;;;27.91;46.81;99122.23;238469;1192;140244;-59
2022/08/02 15:24:20;;;;;;;4.60;3.90;;;;;;;27.63;47.00;99128.27;238227;1192;139657;-60
2022/08/02 15:29:23;;;;;;;6.50;4.10;;;;;;;27.34;47.30;99127.28;238268;1192;139347;-60
2022/08/02 15:34:26;;;;;;;5.10;4.30;;;;;;;27.12;47.68;99125.95;238115;1192;139847;-59
2022/08/02 15:39:29;;;;;;;4.30;3.90;;;;;;;26.97;48.02;99126.70;238277;1192;139369;-60
2022/08/02 15:44:33;;;;;;;5.90;4.10;;;;;;;26.83;48.26;99124.83;237949;1193;139661;-60
2022/08/02 15:49:36;;;;;;;7.70;3.90;;;;;;;26.78;48.76;99131.51;238137;1193;139021;-61
2022/08/02 15:54:43;;;;;;;15.10;10.90;;;;;;;26.77;48.99;99129.20;238312;1192;140219;-60
2022/08/02 15:59:46;;;;;;;92.70;79.20;;;;;;;26.75;49.39;99130.21;238091;1192;139826;-61
2022/08/02 16:04:49;;;;;;;14.20;12.40;;;;;;;26.76;49.39;99135.06;238030;1192;140536;-61
2022/08/02 16:09:52;;;;;;;15.00;12.60;;;;;;;26.78;49.51;99138.52;238197;1192;139560;-59
2022/08/02 16:14:55;;;;;;;8.60;5.90;;;;;;;26.79;49.74;99129.38;238162;1192;138963;-60
2022/08/02 16:19:58;;;;;;;9.00;5.10;;;;;;;26.77;49.98;99134.56;238263;1192;139357;-60
2022/08/02 16:25:01;;;;;;;8.10;5.80;;;;;;;26.67;50.34;99131.66;238100;1192;139543;-59
2022/08/02 16:30:05;;;;;;;8.50;5.30;;;;;;;26.53;50.29;99134.35;238178;1193;138610;-60
2022/08/02 16:35:08;;;;;;;126.10;106.40;;;;;;;26.39;50.49;99131.25;238159;1192;139420;-59
2022/08/02 16:40:11;;;;;;;10.50;7.30;;;;;;;26.31;50.46;99141.33;237961;1192;140267;-58
2022/08/02 16:45:14;;;;;;;59.10;53.00;;;;;;;26.25;50.54;99142.06;238244;1192;139666;-60
2022/08/02 16:50:21;;;;;;;9.20;5.00;;;;;;;26.31;50.49;99144.94;238292;1192;139366;-60
2022/08/02 16:55:29;;;;;;;7.80;4.80;;;;;;;26.24;50.83;99143.94;238281;1192;139225;-59
2022/08/02 17:00:32;;;;;;;7.20;3.50;;;;;;;26.16;51.20;99149.19;238270;1192;140691;-59
2022/08/02 17:05:36;;;;;;;8.40;5.20;;;;;;;26.15;51.28;99152.13;238195;1192;139304;-59
2022/08/02 17:10:59;;;;;;;162.00;141.10;;;;;;;26.15;51.66;99151.86;238212;1192;139677;-60
2022/08/02 17:16:05;;;;;;;24.50;17.10;;;;;;;26.11;51.76;99159.73;238077;1192;139874;-60
2022/08/02 17:21:30;;;;;;;39.20;34.20;;;;;;;26.10;51.42;99161.00;238091;1192;139372;-60
2022/08/02 17:26:36;;;;;;;5.90;5.10;;;;;;;26.11;50.94;99159.62;238259;1192;139169;-61
2022/08/02 17:31:39;;;;;;;5.20;4.20;;;;;;;26.13;50.73;99159.48;238240;1192;139134;-58
2022/08/02 17:36:46;;;;;;;8.20;4.10;;;;;;;26.14;50.83;99160.46;238299;1192;140365;-60
2022/08/02 17:41:51;;;;;;;10.40;5.20;;;;;;;26.10;51.11;99163.30;237940;1193;139402;-59
2022/08/02 17:46:55;;;;;;;254.30;220.20;;;;;;;26.05;51.21;99167.68;237749;1193;141528;-59
2022/08/02 17:51:58;;;;;;;46.10;39.60;;;;;;;25.97;51.17;99172.08;237783;1193;142702;-59
2022/08/02 17:57:21;;;;;;;9.80;6.60;;;;;;;25.85;51.09;99172.27;238020;1192;139911;-60
2022/08/02 18:02:25;;;;;;;8.00;6.80;;;;;;;25.78;51.36;99177.23;238203;1192;139831;-60
2022/08/02 18:07:28;;;;;;;8.90;5.50;;;;;;;25.68;51.55;99180.52;238400;1192;139054;-58
2022/08/02 18:12:52;;;;;;;74.90;66.30;;;;;;;25.58;51.74;99181.23;238221;1192;139013;-60
2022/08/02 18:17:57;;;;;;;52.00;42.80;;;;;;;25.47;51.73;99184.00;238117;1192;140354;-60
2022/08/02 18:23:00;;;;;;;11.50;7.90;;;;;;;25.37;52.11;99185.21;238313;1192;139251;-59
2022/08/02 18:28:04;;;;;;;12.10;6.40;;;;;;;25.27;52.27;99188.27;238073;1192;139482;-58
2022/08/02 18:33:07;;;;;;;6.60;5.40;;;;;;;25.18;52.30;99194.56;238091;1192;138827;-60
2022/08/02 18:38:30;;;;;;;7.90;6.90;;;;;;;25.11;52.46;99198.54;238210;1192;138695;-60
2022/08/02 18:43:34;;;;;;;131.20;118.20;;;;;;;25.03;52.82;99201.02;238366;1193;140292;-58
2022/08/02 18:48:44;;;;;;;378.90;316.60;;;;;;;24.98;53.07;99204.63;237976;1192;141782;-59
2022/08/02 18:53:52;;;;;;;20.00;16.30;;;;;;;24.97;53.30;99209.34;238280;1192;140146;-57
2022/08/02 18:58:57;;;;;;;19.00;11.90;;;;;;;24.90;53.31;99209.27;238243;1192;139299;-57
2022/08/02 19:04:03;;;;;;;12.10;10.50;;;;;;;24.80;53.54;99215.20;238184;1192;139115;-58
2022/08/02 19:09:10;;;;;;;11.70;10.40;;;;;;;24.66;53.81;99224.20;238275;1192;140386;-58
2022/08/02 19:14:15;;;;;;;;;;;;;;;24.56;53.95;99228.16;238312;1192;139542;-56
2022/08/02 19:19:29;;;;;;;12.30;11.10;;;;;;;24.46;54.18;99234.58;238196;1193;126012;-59
2022/08/02 19:24:35;;;;;;;;;;;;;;;24.37;54.35;99243.75;238209;1193;139598;-57
2022/08/02 19:29:42;;;;;;;11.50;10.40;;;;;;;24.24;54.53;99246.67;238292;1192;126579;-58
2022/08/02 19:34:54;;;;;;;11.80;10.10;;;;;;;24.12;54.77;99247.41;238100;1193;140150;-57
2022/08/02 19:39:57;;;;;;;;;;;;;;;24.03;55.03;99256.39;238096;1192;139171;-58
2022/08/02 19:45:00;;;;;;;12.70;11.50;;;;;;;23.93;55.21;99256.13;238111;1193;125966;-57
2022/08/02 19:50:06;;;;;;;11.70;10.40;;;;;;;23.85;55.49;99258.50;238234;1192;139799;-58
2022/08/02 19:55:11;;;;;;;11.80;9.70;;;;;;;23.81;55.71;99265.76;238404;1192;139589;-58
2022/08/02 20:00:35;;;;;;;11.80;10.20;;;;;;;23.85;55.92;99267.58;238324;1192;139341;-58
2022/08/02 20:05:38;;;;;;;12.30;10.70;;;;;;;23.89;56.12;99269.63;238400;1192;139699;-58
2022/08/02 20:10:42;;;;;;;14.50;11.50;;;;;;;23.86;56.18;99264.76;238296;1192;140294;-58
2022/08/02 20:15:49;;;;;;;12.20;11.10;;;;;;;23.85;56.34;99261.53;238318;1192;139692;-58
2022/08/02 20:20:58;;;;;;;12.40;11.20;;;;;;;23.84;56.42;99255.52;238293;1192;140239;-59
2022/08/02 20:26:04;;;;;;;15.10;12.00;;;;;;;23.74;56.39;99253.33;238302;1192;139919;-54
2022/08/02 20:31:08;;;;;;;;;;;;;;;23.67;56.52;99247.71;238427;1192;138975;-60
2022/08/02 20:36:12;;;;;;;14.10;12.70;;;;;;;23.57;56.57;99248.55;238326;1192;125442;-58
2022/08/02 20:41:16;;;;;;;11.30;10.20;;;;;;;23.45;56.67;99255.70;238359;1192;139328;-57
2022/08/02 20:46:23;;;;;;;12.80;10.70;;;;;;;23.32;56.82;99257.19;238016;1191;142439;-58
2022/08/02 20:51:26;;;;;;;13.80;12.30;;;;;;;23.24;57.07;99259.09;238229;1192;139384;-59
2022/08/02 20:56:36;;;;;;;16.00;10.90;;;;;;;23.24;57.39;99256.11;238308;1192;139422;-56
2022/08/02 21:01:39;;;;;;;11.50;10.40;;;;;;;23.20;57.38;99251.84;238403;1192;139282;-58
2022/08/02 21:06:59;;;;;;;16.10;12.90;;;;;;;23.07;57.37;99255.20;238308;1192;139476;-58
2022/08/02 21:12:03;;;;;;;18.10;13.10;;;;;;;22.96;57.44;99249.80;238163;1192;139435;-57
2022/08/02 21:17:09;;;;;;;17.40;12.80;;;;;;;22.89;57.66;99245.73;238183;1192;139907;-56
2022/08/02 21:22:12;;;;;;;12.30;11.00;;;;;;;22.82;57.79;99247.80;238358;1192;139673;-57
2022/08/02 21:27:17;;;;;;;12.30;10.50;;;;;;;22.76;57.82;99246.13;238276;1192;140389;-59
2022/08/02 21:32:40;;;;;;;14.00;12.10;;;;;;;22.71;58.04;99247.28;238252;1191;139456;-58
2022/08/02 21:37:46;;;;;;;13.70;12.50;;;;;;;22.65;58.13;99257.45;238490;1192;139351;-57
2022/08/02 21:42:48;;;;;;;14.40;12.60;;;;;;;22.58;58.24;99261.30;238306;1192;139167;-58
2022/08/02 21:47:52;;;;;;;18.60;13.40;;;;;;;22.53;58.52;99262.83;238191;1192;139824;-58
2022/08/02 21:52:55;;;;;;;14.30;12.70;;;;;;;22.52;58.50;99264.55;238302;1192;139509;-57
2022/08/02 21:57:58;;;;;;;14.40;12.80;;;;;;;22.46;58.59;99265.14;238265;1192;138886;-59
2022/08/02 22:03:01;;;;;;;14.90;13.30;;;;;;;22.39;58.74;99265.67;238202;1192;139480;-58
2022/08/02 22:08:24;;;;;;;17.30;12.30;;;;;;;22.39;58.83;99258.15;238260;1192;139904;-57
2022/08/02 22:13:28;;;;;;;14.60;13.10;;;;;;;22.40;58.89;99259.83;238418;1192;140348;-58
2022/08/02 22:18:40;;;;;;;13.20;11.90;;;;;;;22.39;58.98;99259.60;238302;1192;139471;-58
2022/08/02 22:23:53;;;;;;;13.40;11.70;;;;;;;22.31;59.04;99257.88;238040;1192;139400;-58
2022/08/02 22:28:56;;;;;;;13.20;11.80;;;;;;;22.21;59.15;99257.23;238202;1192;138990;-57
2022/08/02 22:34:04;;;;;;;;;;;;;;;22.09;59.30;99264.08;238237;1193;140010;-59
2022/08/02 22:39:27;;;;;;;14.50;12.80;;;;;;;21.98;59.54;99263.21;237934;1193;125390;-59
2022/08/02 22:44:30;;;;;;;13.20;11.50;;;;;;;21.92;59.67;99269.45;238417;1192;139945;-59
2022/08/02 22:49:35;;;;;;;16.00;11.50;;;;;;;21.91;59.74;99269.52;238252;1192;140308;-60
2022/08/02 22:54:56;;;;;;;13.10;11.80;;;;;;;21.90;59.81;99269.48;238359;1192;139928;-63
2022/08/02 22:59:59;;;;;;;15.00;12.40;;;;;;;21.83;59.88;99270.45;238382;1192;139500;-64
2022/08/02 23:05:03;;;;;;;12.80;11.60;;;;;;;21.74;59.99;99273.36;238389;1192;139566;-58
2022/08/02 23:10:07;;;;;;;14.20;12.80;;;;;;;21.65;60.08;99276.08;238430;1192;141613;-58
2022/08/02 23:15:10;;;;;;;13.90;12.50;;;;;;;21.58;60.21;99272.51;238368;1192;140325;-58
2022/08/02 23:20:13;;;;;;;13.50;11.60;;;;;;;21.52;60.39;99274.20;238316;1192;139971;-58